Tulcea, Tulcea Airport (LRTC)

NameTulcea Airport
CityTulcea
CountryRomania
ICAOLRTC
IATATCE
Altitude19 m
CoordinatesGoogle Map
Live Air TrafficLiveATC.net
METARLRTC 230000Z AUTO 32017KT 9999 NCD 22/15 Q1020
2019-08-23 00:00:00 Wind: Northwest (320°) 8.75 m/s - Visibility: > 10000 m - Temperature: 22 °C - Dew point: 15 °C - Humidity: 64.6% - Pressure: 1020 hPa
Statistics

The table below shows the detailed information of all flights to/from Tulcea, Tulcea Airport (LRTC).